Etusivu
METAR-TAF:

METAR-TAF

Lentoasemat :

Biserta, Tunisia

Leveyspiiri: 37-15N, Pituuspiiri: 009-48E, korkeus merenpinnasta: 5 m

Tämänhetkinen sää

Tämä raportti tehtiin 24 minuuttia sitten, kello 10.00 UTC
Tuuli 13 kn etelästä/kaakosta
Lämpötila 16°C
Kosteus 72%
Ilmanpaine 1025 hPa
Näkyvyys 10 km tai enemmän
Muutamia pilviä 2000 ft:n korkeudessa

METAR: DTTB 231000Z 15013KT 9999 FEW020 16/11 Q1025

Aika: 11:24 (10:24 UTC)

Sääennuste

Tämä raportti tehtiin 1 tunti ja 24 minuuttia sitten, kello 09.00 UTC
Ennuste voimassa 23. päivästä klo 10 UTC - 23. päivään klo 19 UTC
Tuuli 13 kn etelästä/kaakosta
Näkyvyys 10 km tai enemmän
Muutamia pilviä 2000 ft:n korkeudessa

TAF: DTTB 230900Z 2310/2319 15013KT 9999 FEW020

Säähavainnot ja -ennusteet yli 4000 lentoasemalta (METAR- ja TAF-raportit).

Käytössä olevat sääasemat on merkitty karttaan keltaisilla ja punaisilla pisteillä.

Aseta hiiri pisteen päälle nähdäksesi sääaseman nimen.

Klikkaa sitten nähdäksesi säähavainnot ja -ennusteet.

Kartan vaihtaminen: klikkaa mustalla rastilla varustettuja vihreitä pisteitä, niin voit zoomata sisään; viivalla varustettua vihreää pistettä, niin voit zoomata ulos tai vihreitä nuolia, niin pääset viereisille kartoille.


METAR-TAF: